sensor_id;sensor_type;location;lat;lon;timestamp;P1;durP1;ratioP1;P2;durP2;ratioP2
52414;SDS011;38340;52.964;6.086;2023-02-20T00:02:16;28.33;;;18.02;;
52414;SDS011;38340;52.964;6.086;2023-02-20T00:04:42;26.98;;;17.02;;
52414;SDS011;38340;52.964;6.086;2023-02-20T00:07:08;23.90;;;16.33;;
52414;SDS011;38340;52.964;6.086;2023-02-20T00:09:33;26.15;;;15.88;;
52414;SDS011;38340;52.964;6.086;2023-02-20T00:11:59;24.33;;;16.15;;
52414;SDS011;38340;52.964;6.086;2023-02-20T00:14:25;26.88;;;17.05;;
52414;SDS011;38340;52.964;6.086;2023-02-20T00:16:50;26.98;;;16.35;;
52414;SDS011;38340;52.964;6.086;2023-02-20T00:19:16;26.02;;;17.83;;
52414;SDS011;38340;52.964;6.086;2023-02-20T00:21:48;28.05;;;17.52;;
52414;SDS011;38340;52.964;6.086;2023-02-20T00:24:16;23.67;;;16.15;;
52414;SDS011;38340;52.964;6.086;2023-02-20T00:26:49;23.73;;;16.23;;
52414;SDS011;38340;52.964;6.086;2023-02-20T00:29:17;23.35;;;14.75;;
52414;SDS011;38340;52.964;6.086;2023-02-20T00:31:49;25.98;;;16.25;;
52414;SDS011;38340;52.964;6.086;2023-02-20T00:34:19;24.38;;;16.67;;
52414;SDS011;38340;52.964;6.086;2023-02-20T00:36:46;24.15;;;15.02;;
52414;SDS011;38340;52.964;6.086;2023-02-20T00:39:12;23.80;;;14.98;;
52414;SDS011;38340;52.964;6.086;2023-02-20T00:41:38;21.17;;;14.18;;
52414;SDS011;38340;52.964;6.086;2023-02-20T00:44:03;20.35;;;14.10;;
52414;SDS011;38340;52.964;6.086;2023-02-20T00:46:29;23.83;;;15.93;;
52414;SDS011;38340;52.964;6.086;2023-02-20T00:48:55;20.17;;;13.40;;
52414;SDS011;38340;52.964;6.086;2023-02-20T00:51:20;18.25;;;13.45;;
52414;SDS011;38340;52.964;6.086;2023-02-20T00:53:46;17.50;;;13.75;;
52414;SDS011;38340;52.964;6.086;2023-02-20T00:56:12;17.75;;;12.48;;
52414;SDS011;38340;52.964;6.086;2023-02-20T00:58:38;18.88;;;13.43;;
52414;SDS011;38340;52.964;6.086;2023-02-20T01:01:04;18.63;;;12.98;;
52414;SDS011;38340;52.964;6.086;2023-02-20T01:03:30;18.02;;;12.32;;
52414;SDS011;38340;52.964;6.086;2023-02-20T01:05:56;17.05;;;12.15;;
52414;SDS011;38340;52.964;6.086;2023-02-20T01:08:22;20.05;;;11.70;;
52414;SDS011;38340;52.964;6.086;2023-02-20T01:10:48;19.08;;;12.50;;
52414;SDS011;38340;52.964;6.086;2023-02-20T01:13:14;15.27;;;11.25;;
52414;SDS011;38340;52.964;6.086;2023-02-20T01:15:40;17.55;;;11.80;;
52414;SDS011;38340;52.964;6.086;2023-02-20T01:18:06;16.45;;;11.73;;
52414;SDS011;38340;52.964;6.086;2023-02-20T01:20:32;17.30;;;12.40;;
52414;SDS011;38340;52.964;6.086;2023-02-20T01:22:58;24.92;;;12.90;;
52414;SDS011;38340;52.964;6.086;2023-02-20T01:25:24;17.73;;;11.80;;
52414;SDS011;38340;52.964;6.086;2023-02-20T01:27:49;17.25;;;11.73;;
52414;SDS011;38340;52.964;6.086;2023-02-20T01:30:15;17.23;;;11.48;;
52414;SDS011;38340;52.964;6.086;2023-02-20T01:32:41;15.45;;;11.73;;
52414;SDS011;38340;52.964;6.086;2023-02-20T01:35:07;18.23;;;12.32;;
52414;SDS011;38340;52.964;6.086;2023-02-20T01:37:33;20.77;;;12.85;;
52414;SDS011;38340;52.964;6.086;2023-02-20T01:39:59;19.02;;;12.18;;
52414;SDS011;38340;52.964;6.086;2023-02-20T01:42:25;19.42;;;12.07;;
52414;SDS011;38340;52.964;6.086;2023-02-20T01:44:54;21.10;;;12.32;;
52414;SDS011;38340;52.964;6.086;2023-02-20T01:47:21;18.65;;;11.60;;
52414;SDS011;38340;52.964;6.086;2023-02-20T01:49:51;21.40;;;12.85;;
52414;SDS011;38340;52.964;6.086;2023-02-20T01:52:25;20.80;;;12.45;;
52414;SDS011;38340;52.964;6.086;2023-02-20T01:54:54;19.63;;;13.43;;
52414;SDS011;38340;52.964;6.086;2023-02-20T01:57:25;17.25;;;12.20;;
52414;SDS011;38340;52.964;6.086;2023-02-20T01:59:56;24.13;;;12.00;;
52414;SDS011;38340;52.964;6.086;2023-02-20T02:02:27;20.42;;;13.10;;
52414;SDS011;38340;52.964;6.086;2023-02-20T02:04:56;22.08;;;12.45;;
52414;SDS011;38340;52.964;6.086;2023-02-20T02:07:22;20.40;;;12.18;;
52414;SDS011;38340;52.964;6.086;2023-02-20T02:09:52;19.63;;;12.35;;
52414;SDS011;38340;52.964;6.086;2023-02-20T02:12:27;18.70;;;12.55;;
52414;SDS011;38340;52.964;6.086;2023-02-20T02:14:53;18.83;;;12.68;;
52414;SDS011;38340;52.964;6.086;2023-02-20T02:44:21;26.20;;;14.20;;
52414;SDS011;38340;52.964;6.086;2023-02-20T02:51:49;27.00;;;13.75;;
52414;SDS011;38340;52.964;6.086;2023-02-20T02:54:20;26.05;;;13.73;;
52414;SDS011;38340;52.964;6.086;2023-02-20T02:56:51;25.63;;;14.45;;
52414;SDS011;38340;52.964;6.086;2023-02-20T02:59:24;24.13;;;13.90;;
52414;SDS011;38340;52.964;6.086;2023-02-20T03:01:58;26.17;;;13.93;;
52414;SDS011;38340;52.964;6.086;2023-02-20T03:04:27;26.30;;;14.13;;
52414;SDS011;38340;52.964;6.086;2023-02-20T03:06:57;29.15;;;13.90;;
52414;SDS011;38340;52.964;6.086;2023-02-20T03:09:37;23.85;;;14.35;;
52414;SDS011;38340;52.964;6.086;2023-02-20T03:12:07;26.05;;;14.20;;
52414;SDS011;38340;52.964;6.086;2023-02-20T03:15:11;27.67;;;15.63;;
52414;SDS011;38340;52.964;6.086;2023-02-20T03:20:45;29.77;;;14.60;;
52414;SDS011;38340;52.964;6.086;2023-02-20T03:23:23;34.08;;;16.40;;
52414;SDS011;38340;52.964;6.086;2023-02-20T03:25:58;33.90;;;15.32;;
52414;SDS011;38340;52.964;6.086;2023-02-20T03:28:37;26.40;;;14.20;;
52414;SDS011;38340;52.964;6.086;2023-02-20T03:31:20;36.40;;;15.82;;
52414;SDS011;38340;52.964;6.086;2023-02-20T03:34:08;30.55;;;15.35;;
52414;SDS011;38340;52.964;6.086;2023-02-20T03:36:59;33.05;;;14.77;;
52414;SDS011;38340;52.964;6.086;2023-02-20T03:39:49;24.08;;;14.45;;
52414;SDS011;38340;52.964;6.086;2023-02-20T03:42:36;29.80;;;15.70;;
52414;SDS011;38340;52.964;6.086;2023-02-20T03:45:25;30.23;;;16.73;;
52414;SDS011;38340;52.964;6.086;2023-02-20T03:47:53;30.25;;;17.08;;
52414;SDS011;38340;52.964;6.086;2023-02-20T03:50:23;36.80;;;17.65;;
52414;SDS011;38340;52.964;6.086;2023-02-20T03:52:50;31.77;;;17.35;;
52414;SDS011;38340;52.964;6.086;2023-02-20T03:55:16;37.65;;;17.33;;
52414;SDS011;38340;52.964;6.086;2023-02-20T03:57:43;37.85;;;16.42;;
52414;SDS011;38340;52.964;6.086;2023-02-20T04:00:33;29.58;;;15.82;;
52414;SDS011;38340;52.964;6.086;2023-02-20T04:03:09;32.17;;;17.25;;
52414;SDS011;38340;52.964;6.086;2023-02-20T04:05:41;30.00;;;16.70;;
52414;SDS011;38340;52.964;6.086;2023-02-20T04:08:13;27.55;;;15.45;;
52414;SDS011;38340;52.964;6.086;2023-02-20T04:10:52;36.78;;;16.52;;
52414;SDS011;38340;52.964;6.086;2023-02-20T04:16:08;32.42;;;14.65;;
52414;SDS011;38340;52.964;6.086;2023-02-20T04:18:35;36.97;;;17.20;;
52414;SDS011;38340;52.964;6.086;2023-02-20T04:21:01;39.75;;;16.65;;
52414;SDS011;38340;52.964;6.086;2023-02-20T04:23:33;35.83;;;16.75;;
52414;SDS011;38340;52.964;6.086;2023-02-20T04:26:11;32.15;;;16.45;;
52414;SDS011;38340;52.964;6.086;2023-02-20T04:28:41;33.30;;;15.90;;
52414;SDS011;38340;52.964;6.086;2023-02-20T04:31:09;35.30;;;16.20;;
52414;SDS011;38340;52.964;6.086;2023-02-20T04:33:37;31.10;;;16.58;;
52414;SDS011;38340;52.964;6.086;2023-02-20T04:36:03;33.33;;;16.25;;
52414;SDS011;38340;52.964;6.086;2023-02-20T04:38:29;35.80;;;15.98;;
52414;SDS011;38340;52.964;6.086;2023-02-20T04:40:54;30.63;;;16.48;;
52414;SDS011;38340;52.964;6.086;2023-02-20T04:43:20;35.25;;;16.23;;
52414;SDS011;38340;52.964;6.086;2023-02-20T04:45:46;32.67;;;16.38;;
52414;SDS011;38340;52.964;6.086;2023-02-20T04:48:11;38.70;;;18.10;;
52414;SDS011;38340;52.964;6.086;2023-02-20T04:50:37;36.35;;;16.15;;
52414;SDS011;38340;52.964;6.086;2023-02-20T04:53:05;40.47;;;16.80;;
52414;SDS011;38340;52.964;6.086;2023-02-20T04:55:31;37.13;;;16.58;;
52414;SDS011;38340;52.964;6.086;2023-02-20T04:57:56;36.03;;;17.55;;
52414;SDS011;38340;52.964;6.086;2023-02-20T05:00:23;43.40;;;18.90;;
52414;SDS011;38340;52.964;6.086;2023-02-20T05:02:50;37.72;;;18.33;;
52414;SDS011;38340;52.964;6.086;2023-02-20T05:07:43;46.63;;;17.95;;
52414;SDS011;38340;52.964;6.086;2023-02-20T05:10:16;37.83;;;16.73;;
52414;SDS011;38340;52.964;6.086;2023-02-20T05:12:46;38.45;;;19.77;;
52414;SDS011;38340;52.964;6.086;2023-02-20T05:15:12;42.03;;;19.05;;
52414;SDS011;38340;52.964;6.086;2023-02-20T05:17:38;42.15;;;18.30;;
52414;SDS011;38340;52.964;6.086;2023-02-20T05:20:04;44.28;;;17.58;;
52414;SDS011;38340;52.964;6.086;2023-02-20T05:22:31;37.55;;;16.98;;
52414;SDS011;38340;52.964;6.086;2023-02-20T05:24:57;34.33;;;17.58;;
52414;SDS011;38340;52.964;6.086;2023-02-20T05:27:23;36.85;;;16.17;;
52414;SDS011;38340;52.964;6.086;2023-02-20T05:29:51;33.80;;;14.68;;
52414;SDS011;38340;52.964;6.086;2023-02-20T05:32:19;34.10;;;16.20;;
52414;SDS011;38340;52.964;6.086;2023-02-20T05:34:45;34.50;;;16.58;;
52414;SDS011;38340;52.964;6.086;2023-02-20T05:37:12;37.90;;;14.77;;
52414;SDS011;38340;52.964;6.086;2023-02-20T05:39:39;35.83;;;15.00;;
52414;SDS011;38340;52.964;6.086;2023-02-20T05:42:05;40.83;;;15.05;;
52414;SDS011;38340;52.964;6.086;2023-02-20T05:44:31;37.35;;;15.73;;
52414;SDS011;38340;52.964;6.086;2023-02-20T05:46:57;37.35;;;15.85;;
52414;SDS011;38340;52.964;6.086;2023-02-20T05:49:23;39.47;;;16.98;;
52414;SDS011;38340;52.964;6.086;2023-02-20T05:51:49;32.30;;;15.63;;
52414;SDS011;38340;52.964;6.086;2023-02-20T05:54:16;38.47;;;17.23;;
52414;SDS011;38340;52.964;6.086;2023-02-20T05:56:42;29.35;;;17.02;;
52414;SDS011;38340;52.964;6.086;2023-02-20T05:59:09;35.30;;;18.33;;
52414;SDS011;38340;52.964;6.086;2023-02-20T06:01:35;32.15;;;16.27;;
52414;SDS011;38340;52.964;6.086;2023-02-20T06:04:01;24.75;;;14.63;;
52414;SDS011;38340;52.964;6.086;2023-02-20T06:06:33;27.33;;;16.10;;
52414;SDS011;38340;52.964;6.086;2023-02-20T06:09:04;31.90;;;16.65;;
52414;SDS011;38340;52.964;6.086;2023-02-20T06:11:39;26.48;;;14.98;;
52414;SDS011;38340;52.964;6.086;2023-02-20T06:14:06;29.00;;;14.77;;
52414;SDS011;38340;52.964;6.086;2023-02-20T06:16:32;31.85;;;15.40;;
52414;SDS011;38340;52.964;6.086;2023-02-20T06:19:00;22.75;;;15.23;;
52414;SDS011;38340;52.964;6.086;2023-02-20T06:21:26;25.73;;;15.30;;
52414;SDS011;38340;52.964;6.086;2023-02-20T06:23:52;43.63;;;17.48;;
52414;SDS011;38340;52.964;6.086;2023-02-20T06:26:19;29.52;;;15.18;;
52414;SDS011;38340;52.964;6.086;2023-02-20T06:28:45;27.10;;;15.35;;
52414;SDS011;38340;52.964;6.086;2023-02-20T06:31:19;36.10;;;15.73;;
52414;SDS011;38340;52.964;6.086;2023-02-20T06:33:52;32.95;;;15.98;;
52414;SDS011;38340;52.964;6.086;2023-02-20T06:36:28;37.03;;;16.45;;
52414;SDS011;38340;52.964;6.086;2023-02-20T06:38:58;29.25;;;16.23;;
52414;SDS011;38340;52.964;6.086;2023-02-20T06:41:24;28.52;;;16.13;;
52414;SDS011;38340;52.964;6.086;2023-02-20T06:43:50;28.17;;;15.10;;
52414;SDS011;38340;52.964;6.086;2023-02-20T06:46:16;30.25;;;14.25;;
52414;SDS011;38340;52.964;6.086;2023-02-20T06:48:45;30.05;;;15.48;;
52414;SDS011;38340;52.964;6.086;2023-02-20T06:51:15;30.58;;;15.57;;
52414;SDS011;38340;52.964;6.086;2023-02-20T06:53:42;34.13;;;15.45;;
52414;SDS011;38340;52.964;6.086;2023-02-20T06:56:08;28.40;;;14.63;;
52414;SDS011;38340;52.964;6.086;2023-02-20T06:58:35;23.50;;;14.25;;
52414;SDS011;38340;52.964;6.086;2023-02-20T07:01:01;24.65;;;14.40;;
52414;SDS011;38340;52.964;6.086;2023-02-20T07:03:27;22.35;;;13.15;;
52414;SDS011;38340;52.964;6.086;2023-02-20T07:05:53;30.95;;;15.13;;
52414;SDS011;38340;52.964;6.086;2023-02-20T07:08:18;23.60;;;14.18;;
52414;SDS011;38340;52.964;6.086;2023-02-20T07:10:44;26.02;;;13.70;;
52414;SDS011;38340;52.964;6.086;2023-02-20T07:13:09;27.75;;;16.20;;
52414;SDS011;38340;52.964;6.086;2023-02-20T07:15:35;21.90;;;14.63;;
52414;SDS011;38340;52.964;6.086;2023-02-20T07:18:01;31.40;;;15.48;;
52414;SDS011;38340;52.964;6.086;2023-02-20T07:20:26;26.98;;;14.27;;
52414;SDS011;38340;52.964;6.086;2023-02-20T07:22:52;24.92;;;14.32;;
52414;SDS011;38340;52.964;6.086;2023-02-20T07:25:21;31.33;;;14.20;;
52414;SDS011;38340;52.964;6.086;2023-02-20T07:27:47;23.80;;;13.80;;
52414;SDS011;38340;52.964;6.086;2023-02-20T07:30:12;24.13;;;13.63;;
52414;SDS011;38340;52.964;6.086;2023-02-20T07:32:38;23.20;;;14.05;;
52414;SDS011;38340;52.964;6.086;2023-02-20T07:35:04;25.60;;;14.95;;
52414;SDS011;38340;52.964;6.086;2023-02-20T07:37:30;29.10;;;14.15;;
52414;SDS011;38340;52.964;6.086;2023-02-20T07:39:55;44.00;;;16.90;;
52414;SDS011;38340;52.964;6.086;2023-02-20T07:42:21;17.02;;;13.77;;
52414;SDS011;38340;52.964;6.086;2023-02-20T07:44:47;25.27;;;13.88;;
52414;SDS011;38340;52.964;6.086;2023-02-20T07:47:13;26.65;;;14.20;;
52414;SDS011;38340;52.964;6.086;2023-02-20T07:49:39;25.27;;;15.05;;
52414;SDS011;38340;52.964;6.086;2023-02-20T07:52:05;32.60;;;17.02;;
52414;SDS011;38340;52.964;6.086;2023-02-20T07:54:31;26.73;;;14.32;;
52414;SDS011;38340;52.964;6.086;2023-02-20T07:56:56;20.40;;;12.05;;
52414;SDS011;38340;52.964;6.086;2023-02-20T07:59:22;25.17;;;13.77;;
52414;SDS011;38340;52.964;6.086;2023-02-20T08:01:48;29.13;;;12.07;;
52414;SDS011;38340;52.964;6.086;2023-02-20T08:04:14;21.30;;;12.50;;
52414;SDS011;38340;52.964;6.086;2023-02-20T08:06:40;23.35;;;13.30;;
52414;SDS011;38340;52.964;6.086;2023-02-20T08:09:05;23.42;;;11.30;;
52414;SDS011;38340;52.964;6.086;2023-02-20T08:11:32;18.83;;;12.13;;
52414;SDS011;38340;52.964;6.086;2023-02-20T08:14:00;24.08;;;12.60;;
52414;SDS011;38340;52.964;6.086;2023-02-20T08:16:26;27.85;;;12.30;;
52414;SDS011;38340;52.964;6.086;2023-02-20T08:18:52;24.80;;;12.38;;
52414;SDS011;38340;52.964;6.086;2023-02-20T08:21:17;18.98;;;11.80;;
52414;SDS011;38340;52.964;6.086;2023-02-20T08:23:43;20.75;;;11.63;;
52414;SDS011;38340;52.964;6.086;2023-02-20T08:26:09;19.02;;;11.68;;
52414;SDS011;38340;52.964;6.086;2023-02-20T08:28:35;19.27;;;12.05;;
52414;SDS011;38340;52.964;6.086;2023-02-20T08:31:01;23.48;;;11.32;;
52414;SDS011;38340;52.964;6.086;2023-02-20T08:33:27;20.48;;;12.32;;
52414;SDS011;38340;52.964;6.086;2023-02-20T08:35:53;22.65;;;12.07;;
52414;SDS011;38340;52.964;6.086;2023-02-20T08:38:27;25.70;;;13.45;;
52414;SDS011;38340;52.964;6.086;2023-02-20T08:40:55;25.50;;;12.75;;
52414;SDS011;38340;52.964;6.086;2023-02-20T08:43:21;25.70;;;12.02;;
52414;SDS011;38340;52.964;6.086;2023-02-20T08:45:47;25.55;;;13.43;;
52414;SDS011;38340;52.964;6.086;2023-02-20T08:48:13;24.55;;;14.35;;
52414;SDS011;38340;52.964;6.086;2023-02-20T08:50:39;31.40;;;13.70;;
52414;SDS011;38340;52.964;6.086;2023-02-20T08:53:05;21.08;;;12.85;;
52414;SDS011;38340;52.964;6.086;2023-02-20T08:55:30;24.98;;;12.57;;
52414;SDS011;38340;52.964;6.086;2023-02-20T08:57:56;19.80;;;12.88;;
52414;SDS011;38340;52.964;6.086;2023-02-20T09:00:22;20.90;;;11.52;;
52414;SDS011;38340;52.964;6.086;2023-02-20T09:02:47;20.27;;;10.35;;
52414;SDS011;38340;52.964;6.086;2023-02-20T09:05:14;19.15;;;10.85;;
52414;SDS011;38340;52.964;6.086;2023-02-20T09:07:40;23.38;;;12.30;;
52414;SDS011;38340;52.964;6.086;2023-02-20T09:10:06;20.75;;;11.73;;
52414;SDS011;38340;52.964;6.086;2023-02-20T09:12:32;20.00;;;11.02;;
52414;SDS011;38340;52.964;6.086;2023-02-20T09:14:58;26.95;;;12.77;;
52414;SDS011;38340;52.964;6.086;2023-02-20T09:17:26;25.55;;;13.00;;
52414;SDS011;38340;52.964;6.086;2023-02-20T09:19:53;19.45;;;11.68;;
52414;SDS011;38340;52.964;6.086;2023-02-20T09:22:22;22.42;;;10.85;;
52414;SDS011;38340;52.964;6.086;2023-02-20T09:24:51;22.02;;;12.23;;
52414;SDS011;38340;52.964;6.086;2023-02-20T09:27:18;23.25;;;12.88;;
52414;SDS011;38340;52.964;6.086;2023-02-20T09:29:44;19.60;;;11.13;;
52414;SDS011;38340;52.964;6.086;2023-02-20T09:32:11;18.48;;;11.73;;
52414;SDS011;38340;52.964;6.086;2023-02-20T09:34:37;17.38;;;10.75;;
52414;SDS011;38340;52.964;6.086;2023-02-20T09:37:02;24.55;;;10.60;;
52414;SDS011;38340;52.964;6.086;2023-02-20T09:39:29;16.75;;;10.63;;
52414;SDS011;38340;52.964;6.086;2023-02-20T09:53:24;20.20;;;11.55;;
52414;SDS011;38340;52.964;6.086;2023-02-20T09:55:58;19.35;;;11.43;;
52414;SDS011;38340;52.964;6.086;2023-02-20T09:58:40;24.15;;;10.35;;
52414;SDS011;38340;52.964;6.086;2023-02-20T10:01:30;21.40;;;13.35;;
52414;SDS011;38340;52.964;6.086;2023-02-20T10:04:03;15.68;;;10.50;;
52414;SDS011;38340;52.964;6.086;2023-02-20T10:06:34;19.58;;;11.18;;
52414;SDS011;38340;52.964;6.086;2023-02-20T10:09:00;18.52;;;12.45;;
52414;SDS011;38340;52.964;6.086;2023-02-20T10:11:34;14.38;;;10.30;;
52414;SDS011;38340;52.964;6.086;2023-02-20T10:22:35;21.00;;;13.00;;
52414;SDS011;38340;52.964;6.086;2023-02-20T10:25:23;18.30;;;10.02;;
52414;SDS011;38340;52.964;6.086;2023-02-20T10:30:26;20.58;;;9.43;;
52414;SDS011;38340;52.964;6.086;2023-02-20T10:35:39;16.00;;;9.65;;
52414;SDS011;38340;52.964;6.086;2023-02-20T10:38:10;18.75;;;9.02;;
52414;SDS011;38340;52.964;6.086;2023-02-20T10:40:40;19.08;;;9.85;;
52414;SDS011;38340;52.964;6.086;2023-02-20T10:43:18;21.13;;;10.55;;
52414;SDS011;38340;52.964;6.086;2023-02-20T10:48:30;15.95;;;8.00;;
52414;SDS011;38340;52.964;6.086;2023-02-20T10:56:08;20.33;;;9.25;;
52414;SDS011;38340;52.964;6.086;2023-02-20T11:01:13;13.75;;;7.70;;
52414;SDS011;38340;52.964;6.086;2023-02-20T11:06:37;20.38;;;7.88;;
52414;SDS011;38340;52.964;6.086;2023-02-20T11:09:06;17.65;;;7.30;;
52414;SDS011;38340;52.964;6.086;2023-02-20T11:11:44;13.43;;;6.63;;
52414;SDS011;38340;52.964;6.086;2023-02-20T11:14:12;12.32;;;6.90;;
52414;SDS011;38340;52.964;6.086;2023-02-20T11:17:02;12.02;;;6.50;;
52414;SDS011;38340;52.964;6.086;2023-02-20T11:22:02;17.55;;;7.47;;
52414;SDS011;38340;52.964;6.086;2023-02-20T11:24:35;21.67;;;8.40;;
52414;SDS011;38340;52.964;6.086;2023-02-20T11:27:09;13.82;;;6.35;;
52414;SDS011;38340;52.964;6.086;2023-02-20T11:29:41;18.25;;;6.95;;
52414;SDS011;38340;52.964;6.086;2023-02-20T11:32:34;16.27;;;7.65;;
52414;SDS011;38340;52.964;6.086;2023-02-20T11:37:43;17.65;;;7.85;;
52414;SDS011;38340;52.964;6.086;2023-02-20T11:40:20;15.13;;;7.03;;
52414;SDS011;38340;52.964;6.086;2023-02-20T11:42:50;14.45;;;6.80;;
52414;SDS011;38340;52.964;6.086;2023-02-20T11:48:04;24.75;;;12.93;;
52414;SDS011;38340;52.964;6.086;2023-02-20T11:50:52;19.70;;;7.15;;
52414;SDS011;38340;52.964;6.086;2023-02-20T11:56:05;18.08;;;8.50;;
52414;SDS011;38340;52.964;6.086;2023-02-20T11:58:39;18.50;;;8.40;;
52414;SDS011;38340;52.964;6.086;2023-02-20T12:01:06;17.42;;;6.45;;
52414;SDS011;38340;52.964;6.086;2023-02-20T12:03:55;20.50;;;7.97;;
52414;SDS011;38340;52.964;6.086;2023-02-20T12:08:57;15.60;;;7.45;;
52414;SDS011;38340;52.964;6.086;2023-02-20T12:11:26;17.15;;;7.00;;
52414;SDS011;38340;52.964;6.086;2023-02-20T12:13:53;22.33;;;7.82;;
52414;SDS011;38340;52.964;6.086;2023-02-20T12:27:13;13.93;;;5.93;;
52414;SDS011;38340;52.964;6.086;2023-02-20T12:30:14;17.80;;;6.88;;
52414;SDS011;38340;52.964;6.086;2023-02-20T12:35:35;17.95;;;7.20;;
52414;SDS011;38340;52.964;6.086;2023-02-20T12:38:17;20.70;;;9.63;;
52414;SDS011;38340;52.964;6.086;2023-02-20T12:55:23;21.92;;;7.43;;
52414;SDS011;38340;52.964;6.086;2023-02-20T13:01:05;11.80;;;5.97;;
52414;SDS011;38340;52.964;6.086;2023-02-20T13:06:13;16.45;;;7.30;;
52414;SDS011;38340;52.964;6.086;2023-02-20T13:11:39;15.13;;;6.70;;
52414;SDS011;38340;52.964;6.086;2023-02-20T13:14:14;12.82;;;5.63;;
52414;SDS011;38340;52.964;6.086;2023-02-20T13:19:29;16.02;;;6.10;;
52414;SDS011;38340;52.964;6.086;2023-02-20T13:22:03;15.63;;;6.10;;
52414;SDS011;38340;52.964;6.086;2023-02-20T13:24:31;24.90;;;10.75;;
52414;SDS011;38340;52.964;6.086;2023-02-20T13:27:00;15.65;;;7.18;;
52414;SDS011;38340;52.964;6.086;2023-02-20T13:29:32;18.88;;;8.20;;
52414;SDS011;38340;52.964;6.086;2023-02-20T13:34:46;16.88;;;6.30;;
52414;SDS011;38340;52.964;6.086;2023-02-20T13:53:38;20.10;;;10.73;;
52414;SDS011;38340;52.964;6.086;2023-02-20T13:56:17;16.48;;;7.75;;
52414;SDS011;38340;52.964;6.086;2023-02-20T13:58:44;25.92;;;11.23;;
52414;SDS011;38340;52.964;6.086;2023-02-20T14:01:10;18.92;;;7.53;;
52414;SDS011;38340;52.964;6.086;2023-02-20T14:03:37;19.00;;;10.60;;
52414;SDS011;38340;52.964;6.086;2023-02-20T14:08:37;15.18;;;7.03;;
52414;SDS011;38340;52.964;6.086;2023-02-20T14:11:09;15.18;;;6.72;;
52414;SDS011;38340;52.964;6.086;2023-02-20T14:13:38;15.45;;;6.80;;
52414;SDS011;38340;52.964;6.086;2023-02-20T14:16:22;13.50;;;6.53;;
52414;SDS011;38340;52.964;6.086;2023-02-20T14:18:55;15.45;;;8.02;;
52414;SDS011;38340;52.964;6.086;2023-02-20T14:21:26;17.67;;;6.40;;
52414;SDS011;38340;52.964;6.086;2023-02-20T14:23:54;17.77;;;8.50;;
52414;SDS011;38340;52.964;6.086;2023-02-20T14:26:24;17.65;;;6.85;;
52414;SDS011;38340;52.964;6.086;2023-02-20T14:28:54;14.27;;;6.80;;
52414;SDS011;38340;52.964;6.086;2023-02-20T14:34:00;15.00;;;6.25;;
52414;SDS011;38340;52.964;6.086;2023-02-20T14:42:04;17.15;;;6.78;;
52414;SDS011;38340;52.964;6.086;2023-02-20T14:44:37;14.95;;;7.22;;
52414;SDS011;38340;52.964;6.086;2023-02-20T14:47:05;17.58;;;7.15;;
52414;SDS011;38340;52.964;6.086;2023-02-20T14:49:34;17.63;;;7.22;;
52414;SDS011;38340;52.964;6.086;2023-02-20T14:52:03;11.77;;;5.85;;
52414;SDS011;38340;52.964;6.086;2023-02-20T14:54:39;14.05;;;7.57;;
52414;SDS011;38340;52.964;6.086;2023-02-20T14:57:07;19.38;;;6.65;;
52414;SDS011;38340;52.964;6.086;2023-02-20T14:59:38;17.98;;;8.70;;
52414;SDS011;38340;52.964;6.086;2023-02-20T15:02:14;14.63;;;6.45;;
52414;SDS011;38340;52.964;6.086;2023-02-20T15:04:51;12.13;;;6.70;;
52414;SDS011;38340;52.964;6.086;2023-02-20T15:07:18;12.57;;;6.55;;
52414;SDS011;38340;52.964;6.086;2023-02-20T15:09:46;15.70;;;6.10;;
52414;SDS011;38340;52.964;6.086;2023-02-20T15:12:18;18.08;;;6.38;;
52414;SDS011;38340;52.964;6.086;2023-02-20T15:14:45;13.98;;;6.95;;
52414;SDS011;38340;52.964;6.086;2023-02-20T15:17:29;12.43;;;5.75;;
52414;SDS011;38340;52.964;6.086;2023-02-20T15:19:56;12.88;;;6.80;;
52414;SDS011;38340;52.964;6.086;2023-02-20T15:22:41;16.77;;;6.20;;
52414;SDS011;38340;52.964;6.086;2023-02-20T15:25:14;19.20;;;7.10;;
52414;SDS011;38340;52.964;6.086;2023-02-20T15:30:31;19.30;;;7.65;;
52414;SDS011;38340;52.964;6.086;2023-02-20T15:32:57;18.42;;;6.03;;
52414;SDS011;38340;52.964;6.086;2023-02-20T15:35:26;11.55;;;6.95;;
52414;SDS011;38340;52.964;6.086;2023-02-20T15:37:57;17.58;;;7.55;;
52414;SDS011;38340;52.964;6.086;2023-02-20T15:40:29;17.55;;;7.15;;
52414;SDS011;38340;52.964;6.086;2023-02-20T15:42:57;11.90;;;6.25;;
52414;SDS011;38340;52.964;6.086;2023-02-20T15:45:25;14.18;;;6.18;;
52414;SDS011;38340;52.964;6.086;2023-02-20T15:47:52;18.02;;;7.05;;
52414;SDS011;38340;52.964;6.086;2023-02-20T15:50:18;17.33;;;7.15;;
52414;SDS011;38340;52.964;6.086;2023-02-20T15:52:45;15.13;;;6.60;;
52414;SDS011;38340;52.964;6.086;2023-02-20T15:55:15;20.52;;;8.02;;
52414;SDS011;38340;52.964;6.086;2023-02-20T15:57:44;17.10;;;6.85;;
52414;SDS011;38340;52.964;6.086;2023-02-20T16:00:22;19.90;;;7.43;;
52414;SDS011;38340;52.964;6.086;2023-02-20T16:02:50;19.67;;;7.45;;
52414;SDS011;38340;52.964;6.086;2023-02-20T16:05:16;18.83;;;8.48;;
52414;SDS011;38340;52.964;6.086;2023-02-20T16:07:42;17.60;;;7.25;;
52414;SDS011;38340;52.964;6.086;2023-02-20T16:10:09;17.13;;;8.60;;
52414;SDS011;38340;52.964;6.086;2023-02-20T16:12:35;18.48;;;7.97;;
52414;SDS011;38340;52.964;6.086;2023-02-20T16:15:02;15.90;;;8.88;;
52414;SDS011;38340;52.964;6.086;2023-02-20T16:17:31;16.45;;;8.25;;
52414;SDS011;38340;52.964;6.086;2023-02-20T16:19:59;16.15;;;8.70;;
52414;SDS011;38340;52.964;6.086;2023-02-20T16:22:24;20.85;;;8.75;;
52414;SDS011;38340;52.964;6.086;2023-02-20T16:24:50;23.65;;;11.00;;
52414;SDS011;38340;52.964;6.086;2023-02-20T16:29:46;25.20;;;15.00;;
52414;SDS011;38340;52.964;6.086;2023-02-20T16:32:20;16.65;;;11.00;;
52414;SDS011;38340;52.964;6.086;2023-02-20T16:34:50;19.45;;;9.30;;
52414;SDS011;38340;52.964;6.086;2023-02-20T16:37:17;18.38;;;8.13;;
52414;SDS011;38340;52.964;6.086;2023-02-20T16:39:43;23.52;;;11.93;;
52414;SDS011;38340;52.964;6.086;2023-02-20T16:44:44;16.67;;;9.98;;
52414;SDS011;38340;52.964;6.086;2023-02-20T16:47:11;16.70;;;9.13;;
52414;SDS011;38340;52.964;6.086;2023-02-20T16:49:40;18.95;;;8.95;;
52414;SDS011;38340;52.964;6.086;2023-02-20T16:52:12;16.52;;;8.85;;
52414;SDS011;38340;52.964;6.086;2023-02-20T16:54:47;22.35;;;9.70;;
52414;SDS011;38340;52.964;6.086;2023-02-20T16:57:16;15.98;;;10.38;;
52414;SDS011;38340;52.964;6.086;2023-02-20T16:59:42;20.10;;;9.77;;
52414;SDS011;38340;52.964;6.086;2023-02-20T17:02:15;19.58;;;8.95;;
52414;SDS011;38340;52.964;6.086;2023-02-20T17:04:44;19.30;;;9.05;;
52414;SDS011;38340;52.964;6.086;2023-02-20T17:07:11;19.08;;;10.35;;
52414;SDS011;38340;52.964;6.086;2023-02-20T17:09:37;22.35;;;10.02;;
52414;SDS011;38340;52.964;6.086;2023-02-20T17:12:03;22.75;;;10.30;;
52414;SDS011;38340;52.964;6.086;2023-02-20T17:14:29;26.55;;;9.45;;
52414;SDS011;38340;52.964;6.086;2023-02-20T17:16:55;17.13;;;9.15;;
52414;SDS011;38340;52.964;6.086;2023-02-20T17:19:21;26.17;;;10.70;;
52414;SDS011;38340;52.964;6.086;2023-02-20T17:21:47;21.02;;;10.20;;
52414;SDS011;38340;52.964;6.086;2023-02-20T17:24:13;19.95;;;10.25;;
52414;SDS011;38340;52.964;6.086;2023-02-20T17:26:39;21.55;;;10.05;;
52414;SDS011;38340;52.964;6.086;2023-02-20T17:29:05;20.55;;;11.48;;